Palms, Michigan
Current Conditions -  °F | °C
As of 3:58 AM on Sunday 26 Oct 2014 (Local Time) from KBAX Reporting Station
Clear Clear  
Wind Chill: 41°   Ceiling: Unl
Heat Index: 46°   Visibility: 10mi
Dew Point: 35°   Wind: 9mph
Humidity: 68%   Direction: 280°W
Pressure: 29.8"   Gusts: NA
Location:  43.62°N, 82.69°W
Report Text: KBAX 260758Z AUTO 28008KT 10SM CLR 08/02 A2980 RMK AO2 T00750019
Loading
Personal Weather Stations






























Interactive Weather Map
Tropical Storm Tracking
New forecast layout! Learn more

10-Day Weather Forecast

Advertisements
Track Severe Weather on mobile